Time;durP1;ratioP1;P1;durP2;ratioP2;P2;SDS_P1;SDS_P2;PMS_P1;PMS_P2;Temp;Humidity;BMP_temperature;BMP_pressure;BME280_temperature;BME280_humidity;BME280_pressure;Samples;Min_cycle;Max_cycle;Signal;HPM_P1;HPM_P2
2022/08/08 00:01:03;;;;;;;;;;;;;;;29.76;48.06;101072.03;5054486;28;19927;-77
2022/08/08 00:03:39;;;;;;;;;;;;;;;29.75;48.24;101071.19;5072313;28;20356;-77
2022/08/08 00:06:16;;;;;;;;;;;;;;;29.75;48.05;101068.44;5071869;28;19943;-78
2022/08/08 00:09:02;;;;;;;;;;;;;;;29.76;48.46;101077.47;5071642;28;20399;-77
2022/08/08 00:11:39;;;;;;;;;;;;;;;29.75;48.03;101073.91;5072206;28;20478;-77
2022/08/08 00:14:37;;;;;;;;;;;;;;;29.74;48.48;101074.97;5071710;28;19921;-77
2022/08/08 00:17:30;;;;;;;;;;;;;;;29.75;48.05;101084.00;5093714;28;19920;-77
2022/08/08 00:20:23;;;;;;;;;;;;;;;29.75;48.40;101078.53;5094494;28;20355;-77
2022/08/08 00:22:54;;;;;;;;;;;;;;;29.75;48.12;101076.63;5093924;28;19927;-77
2022/08/08 00:25:21;;;;;;;;;;;;;;;29.74;48.34;101085.88;5094430;28;19927;-77
2022/08/08 00:27:49;;;;;;;;;;;;;;;29.74;48.17;101093.22;5093604;28;19927;-77
2022/08/08 00:30:17;;;;;;;;;;;;;;;29.74;48.24;101093.22;5092520;28;19931;-77
2022/08/08 00:32:56;;;;;;;;;;;;;;;29.74;48.24;101088.59;5094095;28;19920;-77
2022/08/08 00:35:56;;;;;;;;;;;;;;;29.74;48.31;101085.03;5092134;28;19927;-77
2022/08/08 00:38:30;;;;;;;;;;;;;;;29.74;48.10;101082.31;5041202;28;19928;-77
2022/08/08 00:41:18;;;;;;;;;;;;;;;29.74;48.38;101085.88;5075053;28;19929;-77
2022/08/08 00:44:08;;;;;;;;;;;;;;;29.75;48.24;101081.25;5057672;28;20300;-77
2022/08/08 00:47:10;;;;;;;;;;;;;;;29.74;48.38;101079.56;5057637;28;19999;-77
2022/08/08 00:50:02;;;;;;;;;;;;;;;29.73;48.34;101078.72;5015157;28;19922;-77
2022/08/08 00:52:38;;;;;;;;;;;;;;;29.73;48.09;101086.88;5030656;28;19922;-77
2022/08/08 00:55:17;;;;;;;;;;;;;;;29.73;48.36;101086.88;4998161;28;19937;-77
2022/08/08 00:58:08;;;;;;;;;;;;;;;29.74;48.32;101090.50;5014948;28;19921;-77
2022/08/08 01:00:54;;;;;;;;;;;;;;;29.73;48.18;101086.06;5014791;28;19921;-77
2022/08/08 01:03:23;;;;;;;;;;;;;;;29.73;48.44;101091.50;5030482;28;19921;-77
2022/08/08 01:06:29;;;;;;;;;;;;;;;29.73;48.20;101081.44;5014455;28;19926;-77
2022/08/08 01:08:58;;;;;;;;;;;;;;;29.72;48.09;101070.72;4998039;28;19933;-77
2022/08/08 01:11:34;;;;;;;;;;;;;;;29.72;48.38;101066.09;5014602;28;19925;-77
2022/08/08 01:14:09;;;;;;;;;;;;;;;29.73;48.32;101075.13;5035115;28;19921;-77
2022/08/08 01:16:50;;;;;;;;;;;;;;;29.73;48.40;101066.94;5070640;28;19921;-77
2022/08/08 01:19:33;;;;;;;;;;;;;;;29.72;48.47;101068.00;5070678;28;19940;-77
2022/08/08 01:22:41;;;;;;;;;;;;;;;29.72;48.06;101068.00;5070202;28;19920;-77
2022/08/08 01:25:25;;;;;;;;;;;;;;;29.72;48.08;101060.66;5093968;27;20395;-77
2022/08/08 01:28:13;;;;;;;;;;;;;;;29.72;47.99;101051.63;5095429;28;19927;-77
2022/08/08 01:30:49;;;;;;;;;;;;;;;29.72;48.28;101051.63;5095243;28;19920;-77
2022/08/08 01:33:40;;;;;;;;;;;;;;;29.72;48.09;101043.44;5095248;28;19927;-77
2022/08/08 01:36:35;;;;;;;;;;;;;;;29.72;48.17;101046.16;5095015;28;20307;-77
2022/08/08 01:39:10;;;;;;;;;;;;;;;29.72;48.27;101051.63;5094916;28;19920;-77
2022/08/08 01:42:07;;;;;;;;;;;;;;;29.70;48.04;101042.81;5095238;28;19920;-77
2022/08/08 01:45:09;;;;;;;;;;;;;;;29.71;48.36;101033.56;5094888;28;19920;-77
2022/08/08 01:48:01;;;;;;;;;;;;;;;29.71;48.02;101028.13;5055756;28;19920;-77
2022/08/08 01:50:52;;;;;;;;;;;;;;;29.70;48.35;101016.34;5056494;28;19927;-77
2022/08/08 01:53:27;;;;;;;;;;;;;;;29.70;48.02;101008.19;5056316;28;20307;-77
2022/08/08 01:56:14;;;;;;;;;;;;;;;29.71;48.32;101007.13;5074187;28;19991;-77
2022/08/08 01:59:25;;;;;;;;;;;;;;;29.71;48.28;101006.28;5073197;28;20011;-77
2022/08/08 02:02:39;;;;;;;;;;;;;;;29.70;48.26;101007.34;5056178;28;20331;-77
2022/08/08 02:05:12;;;;;;;;;;;;;;;29.70;48.21;101005.44;5073471;28;19927;-77
2022/08/08 02:08:00;;;;;;;;;;;;;;;29.71;48.11;101006.28;5089681;28;19920;-78
2022/08/08 02:10:31;;;;;;;;;;;;;;;29.71;48.09;101011.75;5056178;28;19921;-77
2022/08/08 02:13:17;;;;;;;;;;;;;;;29.70;48.34;101019.09;5056313;28;20308;-78
2022/08/08 02:16:27;;;;;;;;;;;;;;;29.69;48.20;101014.66;5089352;28;20300;-77
2022/08/08 02:18:59;;;;;;;;;;;;;;;29.69;48.08;100998.28;5072935;28;19924;-77
2022/08/08 02:25:01;;;;;;;;;;;;;;;29.70;48.26;100971.88;5092983;28;19919;-77
2022/08/08 02:27:37;;;;;;;;;;;;;;;29.68;48.33;100993.88;5089435;28;19920;-77
2022/08/08 02:30:41;;;;;;;;;;;;;;;29.70;48.10;101016.34;5055703;28;19933;-77
2022/08/08 02:33:43;;;;;;;;;;;;;;;29.69;48.12;101005.63;5071740;28;19920;-78
2022/08/08 02:36:43;;;;;;;;;;;;;;;29.69;48.19;100998.28;5055500;28;19920;-77
2022/08/08 02:39:25;;;;;;;;;;;;;;;29.68;48.44;101007.50;5055740;28;20331;-77
2022/08/08 02:42:41;;;;;;;;;;;;;;;29.70;48.30;101001.88;5055508;28;19921;-77
2022/08/08 02:45:29;;;;;;;;;;;;;;;29.69;48.32;100991.97;5055601;28;19924;-77
2022/08/08 02:48:03;;;;;;;;;;;;;;;29.68;48.29;100980.22;5055351;28;19951;-77
2022/08/08 02:50:41;;;;;;;;;;;;;;;29.68;48.15;100969.31;5055477;28;19921;-77
2022/08/08 02:53:37;;;;;;;;;;;;;;;29.69;48.48;100983.78;5055535;28;19927;-77
2022/08/08 02:56:13;;;;;;;;;;;;;;;29.69;48.43;100991.97;5054930;28;19920;-77
2022/08/08 02:59:04;;;;;;;;;;;;;;;29.68;48.59;101014.84;5054931;28;19920;-77
2022/08/08 03:02:09;;;;;;;;;;;;;;;29.69;48.26;101020.09;5055092;28;20419;-77
2022/08/08 03:04:56;;;;;;;;;;;;;;;29.68;48.21;101012.97;5085895;28;19931;-77
2022/08/08 03:07:56;;;;;;;;;;;;;;;29.69;48.57;101013.81;5093129;28;19920;-77
2022/08/08 03:10:44;;;;;;;;;;;;;;;29.68;48.47;101012.97;5092967;28;19920;-77
2022/08/08 03:13:39;;;;;;;;;;;;;;;29.68;48.24;100995.75;5093047;28;20379;-77
2022/08/08 03:16:29;;;;;;;;;;;;;;;29.68;48.34;100995.75;5093158;28;19920;-77
2022/08/08 03:19:22;;;;;;;;;;;;;;;29.68;48.29;100979.38;5092941;28;19943;-77
2022/08/08 03:21:49;;;;;;;;;;;;;;;29.69;48.45;100975.59;5093221;28;20298;-77
2022/08/08 03:24:27;;;;;;;;;;;;;;;29.68;48.40;100965.75;5093207;28;19924;-77
2022/08/08 03:27:08;;;;;;;;;;;;;;;29.67;48.51;100958.59;5093100;28;19935;-77
2022/08/08 03:29:41;;;;;;;;;;;;;;;29.66;48.68;100971.41;5092789;28;19924;-77
2022/08/08 03:35:26;;;;;;;;;;;;;;;29.66;48.29;100998.69;5092747;28;19920;-77
2022/08/08 03:38:00;;;;;;;;;;;;;;;29.67;48.38;101005.00;5076989;28;20394;-77
2022/08/08 03:40:50;;;;;;;;;;;;;;;29.67;48.42;101011.28;5093060;28;19927;-77
2022/08/08 03:43:20;;;;;;;;;;;;;;;29.67;48.59;101021.34;5076594;28;20287;-77
2022/08/08 03:45:53;;;;;;;;;;;;;;;29.67;48.36;101018.63;5092564;28;20388;-77
2022/08/08 03:48:37;;;;;;;;;;;;;;;29.67;48.54;101014.00;5092896;28;20399;-77
2022/08/08 03:51:31;;;;;;;;;;;;;;;29.67;48.57;101018.63;5092881;28;19920;-77
2022/08/08 03:54:18;;;;;;;;;;;;;;;29.66;48.34;101028.72;5094222;28;19920;-77
2022/08/08 03:57:13;;;;;;;;;;;;;;;29.67;48.67;101029.53;5092580;28;19920;-77
2022/08/08 04:00:06;;;;;;;;;;;;;;;29.66;48.49;101030.59;5093033;28;20279;-77
2022/08/08 04:02:52;;;;;;;;;;;;;;;29.67;48.65;101027.66;5092875;28;19927;-77
2022/08/08 04:05:23;;;;;;;;;;;;;;;29.66;48.77;101027.88;5076189;28;19920;-77
2022/08/08 04:07:59;;;;;;;;;;;;;;;29.66;48.62;101036.88;5092696;28;19927;-77
2022/08/08 04:10:29;;;;;;;;;;;;;;;29.66;48.75;101041.50;5092941;28;19927;-77
2022/08/08 04:13:01;;;;;;;;;;;;;;;29.66;48.46;101063.34;5096225;28;19920;-77
2022/08/08 04:15:46;;;;;;;;;;;;;;;29.66;48.43;101057.88;5096878;28;19920;-77
2022/08/08 04:18:34;;;;;;;;;;;;;;;29.65;48.35;101059.72;5096304;28;19927;-77
2022/08/08 04:21:16;;;;;;;;;;;;;;;29.66;48.74;101063.34;5096255;28;20367;-77
2022/08/08 04:23:52;;;;;;;;;;;;;;;29.66;48.56;101075.09;5081399;28;20375;-77
2022/08/08 04:26:39;;;;;;;;;;;;;;;29.66;48.47;101068.78;5096128;28;19935;-77
2022/08/08 04:29:26;;;;;;;;;;;;;;;29.65;48.60;101067.91;5096131;28;19923;-77
2022/08/08 04:31:59;;;;;;;;;;;;;;;29.65;48.64;101056.16;5097186;28;19920;-77
2022/08/08 04:34:29;;;;;;;;;;;;;;;29.65;48.72;101046.09;5095941;28;19920;-77
2022/08/08 04:37:15;;;;;;;;;;;;;;;29.65;48.83;101050.72;5096004;28;20272;-78
2022/08/08 04:39:42;;;;;;;;;;;;;;;29.65;48.68;101064.34;5095836;28;20302;-77
2022/08/08 04:42:33;;;;;;;;;;;;;;;29.65;48.53;101064.34;5095849;28;19920;-77
2022/08/08 04:45:06;;;;;;;;;;;;;;;29.65;48.50;101072.53;5095766;28;19920;-77
2022/08/08 04:47:35;;;;;;;;;;;;;;;29.65;48.88;101072.53;5095748;28;19920;-77
2022/08/08 04:50:14;;;;;;;;;;;;;;;29.65;48.73;101067.06;5095630;28;19927;-77
2022/08/08 04:52:55;;;;;;;;;;;;;;;29.64;48.80;101079.88;5095685;28;19927;-77
2022/08/08 04:55:31;;;;;;;;;;;;;;;29.64;48.76;101092.69;5095640;28;19920;-77
2022/08/08 04:58:19;;;;;;;;;;;;;;;29.65;48.59;101095.22;5095227;28;19923;-78
2022/08/08 05:00:48;;;;;;;;;;;;;;;29.64;48.63;101098.13;5095700;28;20374;-77
2022/08/08 05:03:18;;;;;;;;;;;;;;;29.64;48.79;101096.25;5095816;28;20402;-77
2022/08/08 05:06:05;;;;;;;;;;;;;;;29.64;48.61;101098.13;5095823;28;19943;-77
2022/08/08 05:08:45;;;;;;;;;;;;;;;29.65;48.55;101106.13;5095402;28;19920;-77
2022/08/08 05:11:21;;;;;;;;;;;;;;;29.65;48.70;101099.81;5095298;28;19927;-77
2022/08/08 05:13:56;;;;;;;;;;;;;;;29.64;48.68;101100.88;5095557;28;19924;-77
2022/08/08 05:16:29;;;;;;;;;;;;;;;29.64;48.59;101095.41;5095136;28;20370;-77
2022/08/08 05:19:17;;;;;;;;;;;;;;;29.64;48.76;101095.41;5095162;28;20295;-77
2022/08/08 05:22:07;;;;;;;;;;;;;;;29.63;48.79;101100.03;5094866;28;20386;-77
2022/08/08 05:24:37;;;;;;;;;;;;;;;29.63;48.57;101091.00;5094532;28;19920;-77
2022/08/08 05:27:05;;;;;;;;;;;;;;;29.64;48.89;101098.13;5094948;28;19920;-77
2022/08/08 05:29:35;;;;;;;;;;;;;;;29.64;48.60;101104.44;5095213;28;19920;-77
2022/08/08 05:32:06;;;;;;;;;;;;;;;29.63;48.95;101096.47;5097060;28;19920;-77
2022/08/08 05:34:34;;;;;;;;;;;;;;;29.63;48.93;101104.66;5095344;28;19990;-77
2022/08/08 05:37:04;;;;;;;;;;;;;;;29.63;48.63;101100.03;5094975;28;19927;-77
2022/08/08 05:39:49;;;;;;;;;;;;;;;29.63;48.82;101102.75;5096960;28;20284;-77
2022/08/08 05:42:31;;;;;;;;;;;;;;;29.64;48.63;101109.06;5078312;28;19927;-77
2022/08/08 05:45:01;;;;;;;;;;;;;;;29.63;48.86;101101.91;5094881;28;19931;-77
2022/08/08 05:47:49;;;;;;;;;;;;;;;29.62;48.86;101106.53;5094905;28;20398;-78
2022/08/08 05:50:29;;;;;;;;;;;;;;;29.63;48.93;101107.38;5094815;28;19920;-77
2022/08/08 05:52:59;;;;;;;;;;;;;;;29.62;48.71;101100.22;5094840;28;19924;-77
2022/08/08 05:55:47;;;;;;;;;;;;;;;29.62;48.70;101106.53;5094390;28;19920;-77
2022/08/08 05:58:39;;;;;;;;;;;;;;;29.62;48.99;101100.22;5093870;28;19920;-77
2022/08/08 06:01:26;;;;;;;;;;;;;;;29.63;48.88;101101.91;5094590;28;19920;-77
2022/08/08 06:04:16;;;;;;;;;;;;;;;29.62;48.92;101102.97;5080700;28;19920;-77
2022/08/08 06:06:51;;;;;;;;;;;;;;;29.62;48.70;101102.97;5094118;28;19927;-77
2022/08/08 06:09:21;;;;;;;;;;;;;;;29.62;48.70;101095.63;5094142;28;19920;-77
2022/08/08 06:12:09;;;;;;;;;;;;;;;29.61;48.79;101099.34;5094041;28;19920;-77
2022/08/08 06:14:42;;;;;;;;;;;;;;;29.62;49.05;101102.97;5094106;28;20268;-77
2022/08/08 06:17:15;;;;;;;;;;;;;;;29.62;48.85;101100.22;5094229;28;19920;-77
2022/08/08 06:19:52;;;;;;;;;;;;;;;29.61;48.61;101095.78;5094334;28;19927;-77
2022/08/08 06:22:21;;;;;;;;;;;;;;;29.62;48.92;101108.41;5094182;28;19919;-78
2022/08/08 06:25:14;;;;;;;;;;;;;;;29.61;49.05;101103.97;5093567;28;19920;-77
2022/08/08 06:27:49;;;;;;;;;;;;;;;29.61;49.08;101104.81;5094080;28;19989;-77
2022/08/08 06:30:17;;;;;;;;;;;;;;;29.61;48.70;101104.81;5093781;28;19927;-77
2022/08/08 06:32:50;;;;;;;;;;;;;;;29.61;48.65;101104.81;5094086;28;19931;-77
2022/08/08 06:35:22;;;;;;;;;;;;;;;29.61;48.99;101102.09;5093601;28;20400;-77
2022/08/08 06:38:10;;;;;;;;;;;;;;;29.61;48.98;101113.00;5093836;28;19924;-77
2022/08/08 06:40:48;;;;;;;;;;;;;;;29.60;48.79;101107.75;5093437;28;20272;-77
2022/08/08 06:43:25;;;;;;;;;;;;;;;29.60;48.83;101114.06;5093568;28;19920;-77
2022/08/08 06:46:03;;;;;;;;;;;;;;;29.60;48.91;101108.59;5094047;28;20291;-77
2022/08/08 06:48:34;;;;;;;;;;;;;;;29.60;48.63;101114.06;5093730;28;19934;-77
2022/08/08 06:51:04;;;;;;;;;;;;;;;29.60;48.76;101116.78;5093395;28;19932;-77
2022/08/08 06:53:35;;;;;;;;;;;;;;;29.59;48.79;101125.16;5093966;28;20299;-77
2022/08/08 06:56:07;;;;;;;;;;;;;;;29.60;48.71;101119.50;5093223;28;19920;-77
2022/08/08 06:58:35;;;;;;;;;;;;;;;29.60;48.96;101115.94;5094434;28;20356;-77
2022/08/08 07:01:12;;;;;;;;;;;;;;;29.60;48.68;101118.66;5093620;28;19920;-78
2022/08/08 07:04:16;;;;;;;;;;;;;;;29.60;48.73;101114.06;5093451;28;19934;-78
2022/08/08 07:07:07;;;;;;;;;;;;;;;29.60;48.72;101126.84;5079521;28;19927;-78
2022/08/08 07:09:43;;;;;;;;;;;;;;;29.59;49.00;101131.47;5077561;28;19930;-78
2022/08/08 07:12:40;;;;;;;;;;;;;;;29.59;49.00;101134.19;5093388;28;19924;-78
2022/08/08 07:15:12;;;;;;;;;;;;;;;29.59;48.91;101126.00;5093325;28;19924;-77
2022/08/08 07:18:01;;;;;;;;;;;;;;;29.59;48.82;101131.47;5093177;28;19928;-77
2022/08/08 07:20:53;;;;;;;;;;;;;;;29.60;48.68;101137.75;5093268;28;20335;-78
2022/08/08 07:23:35;;;;;;;;;;;;;;;29.59;49.02;101139.66;5092787;28;19927;-78
2022/08/08 07:26:24;;;;;;;;;;;;;;;29.60;48.74;101140.50;5093112;28;19920;-77
2022/08/08 07:29:01;;;;;;;;;;;;;;;29.59;48.73;101139.66;5092841;28;19920;-77
2022/08/08 07:31:34;;;;;;;;;;;;;;;29.59;48.75;101147.00;5093102;28;19920;-77
2022/08/08 07:34:03;;;;;;;;;;;;;;;29.59;49.19;101149.72;5093311;28;19920;-77
2022/08/08 07:36:37;;;;;;;;;;;;;;;29.59;49.01;101160.63;5092789;28;19920;-77
2022/08/08 07:39:22;;;;;;;;;;;;;;;29.60;48.75;101170.50;5092548;28;20287;-77
2022/08/08 07:42:03;;;;;;;;;;;;;;;29.59;48.74;101172.38;5093022;28;19920;-77
2022/08/08 07:44:34;;;;;;;;;;;;;;;29.59;48.98;101174.28;5092688;28;19934;-77
2022/08/08 07:47:09;;;;;;;;;;;;;;;29.59;49.13;101182.47;5094968;28;19927;-77
2022/08/08 07:49:38;;;;;;;;;;;;;;;29.59;48.64;101182.47;5097192;28;20363;-77
2022/08/08 07:52:09;;;;;;;;;;;;;;;29.59;48.83;101182.47;5096744;28;20371;-77
2022/08/08 07:54:57;;;;;;;;;;;;;;;29.58;49.04;101184.34;5081144;28;19920;-78
2022/08/08 07:57:25;;;;;;;;;;;;;;;29.58;48.71;101176.16;5080524;28;19927;-78
2022/08/08 08:00:00;;;;;;;;;;;;;;;29.58;48.83;101178.06;5096821;28;20291;-78
2022/08/08 08:02:41;;;;;;;;;;;;;;;29.58;48.82;101175.31;5097973;28;19920;-78
2022/08/08 08:05:19;;;;;;;;;;;;;;;29.58;48.64;101176.16;5096519;28;19920;-78
2022/08/08 08:07:48;;;;;;;;;;;;;;;29.59;48.89;101166.94;5096486;28;19920;-78
2022/08/08 08:10:26;;;;;;;;;;;;;;;29.58;48.91;101165.25;5096811;28;19920;-78
2022/08/08 08:13:19;;;;;;;;;;;;;;;29.58;48.88;101165.25;5096701;28;20277;-78
2022/08/08 08:16:00;;;;;;;;;;;;;;;29.58;48.84;101153.50;5096375;28;19927;-78
2022/08/08 08:18:31;;;;;;;;;;;;;;;29.58;48.74;101153.50;5096828;28;20403;-78
2022/08/08 08:21:05;;;;;;;;;;;;;;;29.58;48.90;101151.59;5096569;28;20418;-78
2022/08/08 08:23:44;;;;;;;;;;;;;;;29.57;48.79;101144.44;5096605;28;20315;-78
2022/08/08 08:26:17;;;;;;;;;;;;;;;29.57;48.94;101141.72;5096182;28;20379;-78
2022/08/08 08:28:55;;;;;;;;;;;;;;;29.58;48.81;101140.69;5096135;28;19920;-78
2022/08/08 08:31:23;;;;;;;;;;;;;;;29.57;48.96;101133.53;5096033;28;19927;-78
2022/08/08 08:33:51;;;;;;;;;;;;;;;29.58;48.94;101142.59;5096302;28;19943;-78
2022/08/08 08:36:18;;;;;;;;;;;;;;;29.59;48.79;101133.34;5095944;28;19927;-78
2022/08/08 08:38:50;;;;;;;;;;;;;;;29.58;48.89;101131.66;5096161;28;19943;-78
2022/08/08 08:41:26;;;;;;;;;;;;;;;29.57;48.67;101128.06;5096159;28;20283;-78
2022/08/08 08:43:57;;;;;;;;;;;;;;;29.56;48.71;101132.69;5095857;28;19927;-77
2022/08/08 08:46:42;;;;;;;;;;;;;;;29.57;48.67;101133.53;5096033;28;19924;-78
2022/08/08 08:49:14;;;;;;;;;;;;;;;29.58;48.70;101128.94;5095766;28;19943;-78
2022/08/08 08:51:43;;;;;;;;;;;;;;;29.56;48.68;101127.22;5095659;28;19920;-78
2022/08/08 08:54:20;;;;;;;;;;;;;;;29.56;48.66;101127.22;5095942;28;19920;-78
2022/08/08 08:56:53;;;;;;;;;;;;;;;29.57;48.65;101133.53;5095215;28;19927;-78
2022/08/08 08:59:22;;;;;;;;;;;;;;;29.56;48.82;101131.81;5095807;28;19924;-78
2022/08/08 09:02:15;;;;;;;;;;;;;;;29.56;48.91;101137.25;5095501;28;19920;-77
2022/08/08 09:04:44;;;;;;;;;;;;;;;29.56;48.93;101149.06;5095299;28;19927;-78
2022/08/08 09:07:22;;;;;;;;;;;;;;;29.56;48.56;101165.41;5095609;28;19986;-78
2022/08/08 09:10:08;;;;;;;;;;;;;;;29.55;48.48;101174.63;5095765;28;19920;-78
2022/08/08 09:12:45;;;;;;;;;;;;;;;29.56;48.77;101161.81;5095328;28;19927;-78
2022/08/08 09:15:14;;;;;;;;;;;;;;;29.56;48.47;101168.16;5095609;28;19927;-78
2022/08/08 09:18:02;;;;;;;;;;;;;;;29.56;48.49;101173.59;5097273;28;19927;-78
2022/08/08 09:20:30;;;;;;;;;;;;;;;29.55;48.46;101171.88;5095350;28;19920;-77
2022/08/08 09:23:17;;;;;;;;;;;;;;;29.56;48.42;101173.59;5095127;28;19920;-78
2022/08/08 09:25:59;;;;;;;;;;;;;;;29.56;48.80;101180.91;5095080;28;19927;-78
2022/08/08 09:28:36;;;;;;;;;;;;;;;29.56;48.57;101178.19;5095009;28;19920;-78
2022/08/08 09:31:13;;;;;;;;;;;;;;;29.56;48.38;101179.06;5094690;28;19920;-78
2022/08/08 09:33:44;;;;;;;;;;;;;;;29.55;48.48;101174.63;5096381;28;20383;-78
2022/08/08 09:36:34;;;;;;;;;;;;;;;29.55;48.29;101177.34;5094947;28;20268;-78
2022/08/08 09:39:03;;;;;;;;;;;;;;;29.56;48.37;101178.19;5095043;28;19931;-78
2022/08/08 09:41:42;;;;;;;;;;;;;;;29.55;48.27;101174.63;5095082;28;19920;-78
2022/08/08 09:44:29;;;;;;;;;;;;;;;29.55;48.33;101171.03;5096320;28;19928;-78
2022/08/08 09:47:04;;;;;;;;;;;;;;;29.55;48.46;101171.88;5096560;28;19927;-78
2022/08/08 09:49:52;;;;;;;;;;;;;;;29.55;48.24;101174.63;5095882;28;19920;-78
2022/08/08 09:52:22;;;;;;;;;;;;;;;29.55;48.47;101177.34;5096677;28;19920;-78
2022/08/08 09:55:09;;;;;;;;;;;;;;;29.55;48.48;101171.88;5096934;28;19920;-78
2022/08/08 09:57:47;;;;;;;;;;;;;;;29.55;48.57;101166.44;5094762;28;19920;-78
2022/08/08 10:00:24;;;;;;;;;;;;;;;29.55;48.57;101166.44;5095941;28;19920;-78
2022/08/08 10:03:15;;;;;;;;;;;;;;;29.55;48.29;101155.53;5095859;28;19924;-78
2022/08/08 10:05:46;;;;;;;;;;;;;;;29.55;48.22;101155.53;5096375;28;19927;-78
2022/08/08 10:08:15;;;;;;;;;;;;;;;29.55;48.39;101149.22;5096134;28;20269;-78
2022/08/08 10:10:42;;;;;;;;;;;;;;;29.54;48.20;101142.94;5093968;28;19924;-78
2022/08/08 10:13:18;;;;;;;;;;;;;;;29.55;48.25;101149.22;5096045;28;19927;-78
2022/08/08 10:16:00;;;;;;;;;;;;;;;29.55;48.12;101150.06;5096257;28;19920;-78
2022/08/08 10:18:34;;;;;;;;;;;;;;;29.55;48.33;101144.59;5095377;28;19982;-78
2022/08/08 10:21:06;;;;;;;;;;;;;;;29.55;48.07;101146.50;5095628;28;19920;-78
2022/08/08 10:23:52;;;;;;;;;;;;;;;29.54;48.17;101136.63;5093936;28;20287;-78
2022/08/08 10:26:25;;;;;;;;;;;;;;;29.55;48.15;101144.59;5093899;28;19920;-78
2022/08/08 10:29:08;;;;;;;;;;;;;;;29.54;48.37;101132.00;5095748;28;19920;-78
2022/08/08 10:34:27;;;;;;;;;;;;;;;29.55;48.39;101130.97;5095367;28;19920;-79
2022/08/08 10:36:56;;;;;;;;;;;;;;;29.54;48.42;101132.00;5095817;28;19920;-77
2022/08/08 10:39:27;;;;;;;;;;;;;;;29.54;48.03;101132.00;5095458;28;19927;-77
2022/08/08 10:42:10;;;;;;;;;;;;;;;29.54;47.98;101131.16;5095805;28;19920;-77
2022/08/08 10:44:42;;;;;;;;;;;;;;;29.55;48.04;101127.41;5095428;28;19946;-77
2022/08/08 10:47:13;;;;;;;;;;;;;;;29.53;48.08;101124.00;5094852;28;19931;-77
2022/08/08 10:49:41;;;;;;;;;;;;;;;29.53;48.07;101116.69;5093714;28;19927;-77
2022/08/08 10:52:35;;;;;;;;;;;;;;;29.54;48.07;101123.00;5095328;28;19927;-77
2022/08/08 10:55:06;;;;;;;;;;;;;;;29.53;47.98;101108.50;5094614;28;19931;-77
2022/08/08 10:57:48;;;;;;;;;;;;;;;29.53;48.24;101116.69;5094965;28;19920;-77
2022/08/08 11:00:23;;;;;;;;;;;;;;;29.53;47.88;101113.97;5095317;28;19927;-77
2022/08/08 11:02:53;;;;;;;;;;;;;;;29.54;47.83;101117.53;5094525;28;19927;-77
2022/08/08 11:05:20;;;;;;;;;;;;;;;29.54;47.82;101112.06;5093601;28;20387;-77
2022/08/08 11:07:50;;;;;;;;;;;;;;;29.53;48.23;101105.78;5093315;28;19920;-77
2022/08/08 11:10:37;;;;;;;;;;;;;;;29.54;47.92;101112.91;5094736;28;19927;-77
2022/08/08 11:13:04;;;;;;;;;;;;;;;29.53;48.03;101105.78;5093192;28;19927;-77
2022/08/08 11:15:53;;;;;;;;;;;;;;;29.54;48.29;101112.91;5094463;28;19920;-77
2022/08/08 11:18:34;;;;;;;;;;;;;;;29.53;47.87;101102.19;5095136;28;19927;-77
2022/08/08 11:21:02;;;;;;;;;;;;;;;29.53;47.83;101108.50;5095025;28;19927;-77
2022/08/08 11:23:39;;;;;;;;;;;;;;;29.53;47.89;101096.72;5092864;28;19924;-77
2022/08/08 11:26:07;;;;;;;;;;;;;;;29.53;47.72;101103.06;5095234;28;19920;-78
2022/08/08 11:28:35;;;;;;;;;;;;;;;29.53;47.77;101099.44;5093787;28;19920;-77
2022/08/08 11:31:05;;;;;;;;;;;;;;;29.54;47.94;101096.56;5076667;28;19920;-77
2022/08/08 11:33:36;;;;;;;;;;;;;;;29.53;47.86;101089.41;5094923;28;19920;-77
2022/08/08 11:36:23;;;;;;;;;;;;;;;29.53;47.97;101094.88;5094599;28;19927;-77
2022/08/08 11:38:55;;;;;;;;;;;;;;;29.53;47.96;101094.00;5092655;28;19920;-77
2022/08/08 11:41:23;;;;;;;;;;;;;;;29.54;47.80;101090.25;5094192;28;19923;-77
2022/08/08 11:43:58;;;;;;;;;;;;;;;29.53;47.96;101092.13;5094748;28;20260;-77
2022/08/08 11:46:27;;;;;;;;;;;;;;;29.53;47.90;101083.94;5093831;28;19920;-77
2022/08/08 11:49:08;;;;;;;;;;;;;;;29.53;48.23;101086.69;5094797;28;19920;-77
2022/08/08 11:51:35;;;;;;;;;;;;;;;29.53;47.85;101083.94;5093892;28;19927;-77
2022/08/08 11:54:07;;;;;;;;;;;;;;;29.53;47.98;101074.91;5094203;28;19920;-77
2022/08/08 11:56:54;;;;;;;;;;;;;;;29.52;47.87;101076.78;5094240;28;19927;-77
2022/08/08 11:59:31;;;;;;;;;;;;;;;29.54;48.25;101073.88;5092351;28;20379;-77
2022/08/08 12:02:19;;;;;;;;;;;;;;;29.53;47.87;101073.03;5093722;28;19920;-77
2022/08/08 12:05:02;;;;;;;;;;;;;;;29.52;47.83;101065.88;5094689;28;19920;-77
2022/08/08 12:07:29;;;;;;;;;;;;;;;29.53;47.95;101064.84;5094423;28;19920;-77
2022/08/08 12:10:08;;;;;;;;;;;;;;;29.54;47.97;101071.16;5094638;28;19920;-77
2022/08/08 12:12:40;;;;;;;;;;;;;;;29.53;47.93;101064.00;5094362;28;19927;-77
2022/08/08 12:15:12;;;;;;;;;;;;;;;29.53;47.83;101064.00;5093711;28;19931;-77
2022/08/08 12:17:41;;;;;;;;;;;;;;;29.52;47.78;101063.16;5093720;28;20264;-77
2022/08/08 12:20:17;;;;;;;;;;;;;;;29.52;47.95;101063.16;5094228;28;20252;-77
2022/08/08 12:22:48;;;;;;;;;;;;;;;29.52;47.82;101060.41;5094463;28;19920;-77
2022/08/08 12:25:21;;;;;;;;;;;;;;;29.52;48.15;101057.69;5093125;28;19920;-77
2022/08/08 12:28:07;;;;;;;;;;;;;;;29.51;47.78;101057.91;5093964;28;20401;-77
2022/08/08 12:30:42;;;;;;;;;;;;;;;29.53;47.71;101058.53;5093920;28;19927;-77
2022/08/08 12:33:22;;;;;;;;;;;;;;;29.52;47.93;101056.84;5096896;28;19920;-77
2022/08/08 12:36:13;;;;;;;;;;;;;;;29.52;47.63;101054.97;5097647;28;19920;-77
2022/08/08 12:38:48;;;;;;;;;;;;;;;29.52;47.61;101052.22;5098185;28;19919;-77
2022/08/08 12:41:16;;;;;;;;;;;;;;;29.52;47.71;101059.56;5098065;28;19920;-77
2022/08/08 12:44:03;;;;;;;;;;;;;;;29.51;47.73;101044.25;5097219;28;19924;-77
2022/08/08 12:46:31;;;;;;;;;;;;;;;29.52;47.65;101045.94;5097099;28;19924;-77
2022/08/08 12:49:00;;;;;;;;;;;;;;;29.53;47.62;101047.63;5097104;28;19920;-77
2022/08/08 12:51:49;;;;;;;;;;;;;;;29.51;47.82;101038.81;5096928;28;19927;-77
2022/08/08 12:54:33;;;;;;;;;;;;;;;29.52;47.67;101043.22;5097235;28;19927;-77
2022/08/08 12:57:16;;;;;;;;;;;;;;;29.53;47.81;101047.63;5097236;28;19920;-77
2022/08/08 12:59:50;;;;;;;;;;;;;;;29.51;47.63;101041.53;5079564;28;19946;-77
2022/08/08 13:02:35;;;;;;;;;;;;;;;29.52;47.57;101035.03;5097414;28;19927;-77
2022/08/08 13:05:23;;;;;;;;;;;;;;;29.52;47.65;101035.03;5097248;28;19927;-77
2022/08/08 13:08:17;;;;;;;;;;;;;;;29.51;47.99;101036.06;5097571;28;19920;-77
2022/08/08 13:10:53;;;;;;;;;;;;;;;29.51;47.58;101033.34;5097182;28;19920;-77
2022/08/08 13:13:28;;;;;;;;;;;;;;;29.52;47.61;101035.03;5095685;28;20291;-77
2022/08/08 13:16:16;;;;;;;;;;;;;;;29.51;47.64;101036.06;5097403;28;20283;-77
2022/08/08 13:18:44;;;;;;;;;;;;;;;29.50;47.58;101026.22;5096787;28;19934;-77
2022/08/08 13:21:24;;;;;;;;;;;;;;;29.51;47.56;101025.16;5097219;28;19920;-78
2022/08/08 13:24:11;;;;;;;;;;;;;;;29.52;47.73;101026.84;5096947;28;19931;-78
2022/08/08 13:27:03;;;;;;;;;;;;;;;29.50;47.57;101027.06;5096385;28;19920;-78
2022/08/08 13:29:30;;;;;;;;;;;;;;;29.50;47.41;101027.06;5097104;28;19920;-78
2022/08/08 13:32:06;;;;;;;;;;;;;;;29.50;47.47;101027.06;5096787;28;19927;-78
2022/08/08 13:34:38;;;;;;;;;;;;;;;29.52;47.67;101018.66;5096733;28;19920;-78
2022/08/08 13:37:09;;;;;;;;;;;;;;;29.50;47.59;101010.69;5096135;28;19920;-78
2022/08/08 13:39:50;;;;;;;;;;;;;;;29.50;47.51;101005.22;5096802;28;20375;-78
2022/08/08 13:42:18;;;;;;;;;;;;;;;29.50;47.60;101005.22;5096021;28;19920;-78
2022/08/08 13:44:53;;;;;;;;;;;;;;;29.51;47.62;101003.34;5094835;28;19920;-78
2022/08/08 13:47:22;;;;;;;;;;;;;;;29.51;47.85;100998.72;5096762;28;19920;-78